createdAt,value
2022-07-26T00:01:01.552Z,53.67
2022-07-26T00:03:29.358Z,55.30
2022-07-26T00:05:57.155Z,57.25
2022-07-26T00:08:24.842Z,57.69
2022-07-26T00:10:53.077Z,58.89
2022-07-26T00:13:21.738Z,59.63
2022-07-26T00:15:52.750Z,60.38
2022-07-26T00:18:20.787Z,60.01
2022-07-26T00:20:51.612Z,59.09
2022-07-26T00:23:19.787Z,58.38
2022-07-26T00:25:47.526Z,59.02
2022-07-26T00:28:15.378Z,58.38
2022-07-26T00:30:43.323Z,58.08
2022-07-26T00:33:11.034Z,59.34
2022-07-26T00:35:38.802Z,59.21
2022-07-26T00:38:06.446Z,60.57
2022-07-26T00:40:35.538Z,61.89
2022-07-26T00:43:03.539Z,62.83
2022-07-26T00:45:31.185Z,63.60
2022-07-26T00:47:58.835Z,64.46
2022-07-26T00:50:26.738Z,65.04
2022-07-26T00:52:55.259Z,64.34
2022-07-26T00:55:22.991Z,65.37
2022-07-26T00:57:52.095Z,65.10
2022-07-26T01:00:23.781Z,65.97
2022-07-26T01:02:51.757Z,66.43
2022-07-26T01:05:19.611Z,65.11
2022-07-26T01:07:48.636Z,65.25
2022-07-26T01:10:16.447Z,64.85
2022-07-26T01:12:44.589Z,64.34
2022-07-26T01:15:14.594Z,63.90
2022-07-26T01:17:43.176Z,64.97
2022-07-26T01:20:13.103Z,63.81
2022-07-26T01:22:41.579Z,64.08
2022-07-26T01:25:09.800Z,64.29
2022-07-26T01:27:39.748Z,63.88
2022-07-26T01:30:10.570Z,63.45
2022-07-26T01:32:38.847Z,63.22
2022-07-26T01:35:08.181Z,63.70
2022-07-26T01:37:36.103Z,64.03
2022-07-26T01:40:04.780Z,65.05
2022-07-26T01:42:33.462Z,65.05
2022-07-26T01:45:01.148Z,63.87
2022-07-26T01:47:29.009Z,64.26
2022-07-26T01:49:56.710Z,63.72
2022-07-26T01:52:24.350Z,63.62
2022-07-26T01:54:52.144Z,64.77
2022-07-26T01:57:19.890Z,64.12
2022-07-26T01:59:47.602Z,63.38
2022-07-26T02:02:15.322Z,63.76
2022-07-26T02:05:02.073Z,63.55
2022-07-26T02:07:32.593Z,64.00
2022-07-26T02:10:00.984Z,63.80
2022-07-26T02:12:28.797Z,63.92
2022-07-26T02:14:56.498Z,63.80
2022-07-26T02:17:24.288Z,63.77
2022-07-26T02:19:52.484Z,63.58
2022-07-26T02:22:20.455Z,64.04
2022-07-26T02:24:49.120Z,63.99
2022-07-26T02:27:17.345Z,65.05
2022-07-26T02:29:45.549Z,64.66
2022-07-26T02:32:13.487Z,65.13
2022-07-26T02:34:41.362Z,65.62
2022-07-26T02:37:09.081Z,65.46
2022-07-26T02:39:36.745Z,65.62
2022-07-26T02:42:04.630Z,65.52
2022-07-26T02:44:32.392Z,66.14
2022-07-26T02:47:00.164Z,66.13
2022-07-26T02:49:27.996Z,66.01
2022-07-26T02:51:55.704Z,66.03
2022-07-26T02:54:24.036Z,66.11
2022-07-26T02:56:51.994Z,66.56
2022-07-26T02:59:19.748Z,65.20
2022-07-26T03:01:47.584Z,65.27
2022-07-26T03:04:15.412Z,65.22
2022-07-26T03:06:43.109Z,65.31
2022-07-26T03:09:11.017Z,65.16
2022-07-26T03:11:38.888Z,64.25
2022-07-26T03:14:06.922Z,64.21
2022-07-26T03:16:35.112Z,62.67
2022-07-26T03:19:02.897Z,62.99
2022-07-26T03:21:30.633Z,63.58
2022-07-26T03:23:58.352Z,62.86
2022-07-26T03:26:26.088Z,63.15
2022-07-26T03:28:54.016Z,62.67
2022-07-26T03:31:23.600Z,62.86
2022-07-26T03:33:51.430Z,63.97
2022-07-26T03:36:19.158Z,63.43
2022-07-26T03:38:46.863Z,63.32
2022-07-26T03:41:14.742Z,63.24
2022-07-26T03:43:42.447Z,63.92
2022-07-26T03:46:10.265Z,64.46
2022-07-26T03:48:38.123Z,64.95
2022-07-26T03:51:05.990Z,65.03
2022-07-26T03:53:34.696Z,65.33
2022-07-26T03:56:21.517Z,64.66
2022-07-26T03:58:49.365Z,64.72
2022-07-26T04:01:17.611Z,65.45
2022-07-26T04:03:47.698Z,65.03
2022-07-26T04:06:16.384Z,65.58
2022-07-26T04:08:44.331Z,64.28
2022-07-26T04:11:12.189Z,64.74
2022-07-26T04:13:40.169Z,64.54
2022-07-26T04:16:08.141Z,64.36
2022-07-26T04:18:35.859Z,64.29
2022-07-26T04:21:04.392Z,64.24
2022-07-26T04:23:32.113Z,62.42
2022-07-26T04:25:59.849Z,60.74
2022-07-26T04:28:29.109Z,59.37
2022-07-26T04:30:59.010Z,58.79
2022-07-26T04:33:27.621Z,58.07
2022-07-26T04:35:55.386Z,58.06
2022-07-26T04:38:23.115Z,58.45
2022-07-26T04:40:52.199Z,58.73
2022-07-26T04:43:20.096Z,58.86
2022-07-26T04:45:48.367Z,58.67
2022-07-26T04:48:16.601Z,58.52
2022-07-26T04:50:44.468Z,58.63
2022-07-26T04:53:12.223Z,58.87
2022-07-26T04:55:40.948Z,59.00
2022-07-26T04:58:10.131Z,58.61
2022-07-26T05:00:56.786Z,58.72
2022-07-26T05:03:26.196Z,58.70
2022-07-26T05:05:53.942Z,58.97
2022-07-26T05:08:21.747Z,57.79
2022-07-26T05:10:55.223Z,56.79
2022-07-26T05:13:30.459Z,56.21
2022-07-26T05:16:00.100Z,55.77
2022-07-26T05:18:31.619Z,55.42
2022-07-26T05:21:12.072Z,55.58
2022-07-26T05:23:39.807Z,55.38
2022-07-26T05:26:07.558Z,56.00
2022-07-26T05:28:35.298Z,55.29
2022-07-26T05:31:03.227Z,55.62
2022-07-26T05:33:31.137Z,55.66
2022-07-26T05:35:58.865Z,55.07
2022-07-26T05:38:27.591Z,54.14
2022-07-26T05:40:55.641Z,53.71
2022-07-26T05:43:23.413Z,53.98
2022-07-26T05:45:51.493Z,53.15
2022-07-26T05:48:19.313Z,51.97
2022-07-26T05:50:47.568Z,52.31
2022-07-26T05:53:17.785Z,51.42
2022-07-26T05:55:45.513Z,51.06
2022-07-26T05:58:13.439Z,50.97
2022-07-26T06:00:45.346Z,50.87
2022-07-26T06:03:25.938Z,50.67
2022-07-26T06:05:56.871Z,49.30
2022-07-26T06:08:26.189Z,48.91
2022-07-26T06:10:55.143Z,48.13
2022-07-26T06:13:23.752Z,47.75
2022-07-26T06:15:52.023Z,47.64
2022-07-26T06:18:20.007Z,47.05
2022-07-26T06:20:48.516Z,44.61
2022-07-26T06:23:16.319Z,45.01
2022-07-26T06:25:44.207Z,45.20
2022-07-26T06:28:12.026Z,44.70
2022-07-26T06:30:40.069Z,44.41
2022-07-26T06:33:09.658Z,45.04
2022-07-26T06:35:39.328Z,45.82
2022-07-26T06:38:07.643Z,46.04
2022-07-26T06:40:36.265Z,45.01
2022-07-26T06:43:05.147Z,45.87
2022-07-26T06:45:34.235Z,44.83
2022-07-26T06:48:02.086Z,44.67
2022-07-26T06:50:29.865Z,44.84
2022-07-26T06:52:57.667Z,44.13
2022-07-26T06:55:25.450Z,45.62
2022-07-26T06:57:53.161Z,45.54
2022-07-26T07:00:21.243Z,45.91
2022-07-26T07:02:49.016Z,45.60
2022-07-26T07:05:16.879Z,45.82
2022-07-26T07:07:45.311Z,46.12
2022-07-26T07:10:14.236Z,46.07
2022-07-26T07:12:44.825Z,46.69
2022-07-26T07:15:12.795Z,45.87
2022-07-26T07:17:40.517Z,46.93
2022-07-26T07:20:08.609Z,46.32
2022-07-26T07:22:36.300Z,46.05
2022-07-26T07:25:06.220Z,46.29
2022-07-26T07:27:34.137Z,46.30
2022-07-26T07:30:02.823Z,46.05
2022-07-26T07:32:32.048Z,46.27
2022-07-26T07:34:59.827Z,45.75
2022-07-26T07:37:27.558Z,45.58
2022-07-26T07:40:15.521Z,45.80
2022-07-26T07:42:43.323Z,45.51
2022-07-26T07:45:11.784Z,45.19
2022-07-26T07:47:39.598Z,44.99
2022-07-26T07:50:07.896Z,43.52
2022-07-26T07:52:35.819Z,44.21
2022-07-26T07:55:37.024Z,44.18
2022-07-26T07:57:51.818Z,43.66
2022-07-26T08:00:27.427Z,43.51
2022-07-26T08:02:55.538Z,43.15
2022-07-26T08:05:23.339Z,42.75
2022-07-26T08:07:52.606Z,42.68
2022-07-26T08:10:20.583Z,42.06
2022-07-26T08:12:51.277Z,41.07
2022-07-26T08:15:19.618Z,41.24
2022-07-26T08:17:54.819Z,41.27
2022-07-26T08:20:23.469Z,41.23
2022-07-26T08:22:51.750Z,41.05
2022-07-26T08:25:19.991Z,39.50
2022-07-26T08:28:03.299Z,38.87
2022-07-26T08:30:31.740Z,39.54
2022-07-26T08:32:59.717Z,38.82
2022-07-26T08:35:29.645Z,38.53
2022-07-26T08:37:58.085Z,37.63
2022-07-26T08:40:26.006Z,38.40
2022-07-26T08:42:56.353Z,38.25
2022-07-26T08:45:25.731Z,37.13
2022-07-26T08:48:16.093Z,36.85
2022-07-26T08:50:42.350Z,36.32
2022-07-26T08:53:12.137Z,36.75
2022-07-26T08:56:05.278Z,36.51
2022-07-26T08:58:28.031Z,36.55
2022-07-26T09:01:13.039Z,35.69
2022-07-26T09:03:42.761Z,35.91
2022-07-26T09:06:14.321Z,36.04
2022-07-26T09:08:43.092Z,35.60
2022-07-26T09:11:25.821Z,35.99
2022-07-26T09:13:56.673Z,35.47
2022-07-26T09:16:24.885Z,34.74
2022-07-26T09:18:53.340Z,34.54
2022-07-26T09:21:31.176Z,34.79
2022-07-26T09:23:59.862Z,34.75
2022-07-26T09:26:28.615Z,33.96
2022-07-26T09:29:07.104Z,33.68
2022-07-26T09:31:36.749Z,34.00
2022-07-26T09:34:06.425Z,33.90
2022-07-26T09:36:50.913Z,32.83
2022-07-26T09:39:33.362Z,33.27
2022-07-26T09:44:58.051Z,32.29
2022-07-26T09:47:39.655Z,32.75
2022-07-26T09:50:16.910Z,32.26
2022-07-26T09:53:09.225Z,32.70
2022-07-26T09:55:55.817Z,32.34
2022-07-26T09:58:24.699Z,32.08
2022-07-26T10:00:52.418Z,31.68
2022-07-26T10:03:20.108Z,31.41
2022-07-26T10:05:47.897Z,32.06
2022-07-26T10:08:15.728Z,31.84
2022-07-26T10:10:50.450Z,32.08
2022-07-26T10:13:18.516Z,31.96
2022-07-26T10:15:51.598Z,31.57
2022-07-26T10:18:38.266Z,31.56
2022-07-26T10:21:29.806Z,31.75
2022-07-26T10:23:59.695Z,31.82
2022-07-26T10:26:36.413Z,32.25
2022-07-26T10:29:16.589Z,31.60
2022-07-26T10:32:05.418Z,31.29
2022-07-26T10:34:38.636Z,31.33
2022-07-26T10:37:12.105Z,31.56
2022-07-26T10:39:39.841Z,31.54
2022-07-26T10:42:10.650Z,31.40
2022-07-26T10:44:42.098Z,31.07
2022-07-26T10:47:15.674Z,30.81
2022-07-26T10:49:50.577Z,30.08
2022-07-26T10:52:21.156Z,29.88
2022-07-26T10:55:00.069Z,29.56
2022-07-26T10:57:27.762Z,30.67
2022-07-26T10:59:57.607Z,29.35
2022-07-26T11:02:32.636Z,29.15
2022-07-26T11:05:03.688Z,28.95
2022-07-26T11:07:32.113Z,29.14
2022-07-26T11:10:01.331Z,28.83
2022-07-26T11:12:29.137Z,29.38
2022-07-26T11:14:56.816Z,28.40
2022-07-26T11:17:29.408Z,29.32
2022-07-26T11:19:58.030Z,28.93
2022-07-26T11:22:33.469Z,28.94
2022-07-26T11:25:01.454Z,29.56
2022-07-26T11:27:29.496Z,29.51
2022-07-26T11:30:06.269Z,28.73
2022-07-26T11:32:34.138Z,28.19
2022-07-26T11:35:07.039Z,28.29
2022-07-26T11:37:34.830Z,29.71
2022-07-26T11:40:02.618Z,29.73
2022-07-26T11:42:30.494Z,28.99
2022-07-26T11:44:58.454Z,29.08
2022-07-26T11:47:26.802Z,27.73
2022-07-26T11:50:14.242Z,28.59
2022-07-26T11:52:42.918Z,28.86
2022-07-26T11:55:10.682Z,29.33
2022-07-26T11:57:38.607Z,29.86
2022-07-26T12:00:07.197Z,29.89
2022-07-26T12:02:41.157Z,29.16
2022-07-26T12:05:21.507Z,29.08
2022-07-26T12:08:03.045Z,29.59
2022-07-26T12:10:31.100Z,29.93
2022-07-26T12:13:10.705Z,29.43
2022-07-26T12:15:49.516Z,30.05
2022-07-26T12:18:28.865Z,30.34
2022-07-26T12:21:05.138Z,31.18
2022-07-26T12:23:44.156Z,30.61
2022-07-26T12:26:23.456Z,29.73
2022-07-26T12:28:51.696Z,29.62
2022-07-26T12:31:29.591Z,29.39
2022-07-26T12:33:58.124Z,29.30
2022-07-26T12:36:29.479Z,28.97
2022-07-26T12:39:00.967Z,29.00
2022-07-26T12:41:37.725Z,29.89
2022-07-26T12:44:08.785Z,29.32
2022-07-26T12:46:37.290Z,28.81
2022-07-26T12:49:05.875Z,27.62
2022-07-26T12:51:35.216Z,27.28
2022-07-26T12:54:06.449Z,27.31
2022-07-26T12:56:35.163Z,27.42
2022-07-26T12:59:04.530Z,27.06
2022-07-26T13:01:32.931Z,26.94
2022-07-26T13:04:01.438Z,27.22
2022-07-26T13:06:33.116Z,26.28
2022-07-26T13:09:01.249Z,26.48
2022-07-26T13:11:29.567Z,26.29
2022-07-26T13:13:57.899Z,27.19
2022-07-26T13:16:26.103Z,27.84
2022-07-26T13:19:06.111Z,27.79
2022-07-26T13:21:41.485Z,27.65
2022-07-26T13:24:10.846Z,27.83
2022-07-26T13:26:41.071Z,28.10
2022-07-26T13:29:09.614Z,27.53
2022-07-26T13:31:38.197Z,27.56
2022-07-26T13:34:06.704Z,28.15
2022-07-26T13:36:35.128Z,28.47
2022-07-26T13:39:04.336Z,27.06
2022-07-26T13:41:32.340Z,26.49
2022-07-26T13:44:04.197Z,27.02
2022-07-26T13:46:33.583Z,28.31
2022-07-26T13:49:04.175Z,28.04
2022-07-26T13:51:58.624Z,28.48
2022-07-26T13:54:32.512Z,27.22
2022-07-26T13:57:02.133Z,27.50
2022-07-26T13:59:30.982Z,27.96
2022-07-26T14:01:59.276Z,28.00
2022-07-26T14:04:29.042Z,27.46
2022-07-26T14:06:57.401Z,27.60
2022-07-26T14:09:25.803Z,28.18
2022-07-26T14:11:53.983Z,28.94
2022-07-26T14:14:25.812Z,28.71
2022-07-26T14:16:54.096Z,29.22
2022-07-26T14:19:22.243Z,29.39
2022-07-26T14:21:59.421Z,29.41
2022-07-26T14:24:29.059Z,29.48
2022-07-26T14:26:59.501Z,29.24
2022-07-26T14:29:28.627Z,29.28
2022-07-26T14:31:59.557Z,29.54
2022-07-26T14:34:28.819Z,29.32
2022-07-26T14:36:57.533Z,29.32
2022-07-26T14:39:25.635Z,29.12
2022-07-26T14:41:53.823Z,29.07
2022-07-26T14:44:22.357Z,28.91
2022-07-26T14:46:51.049Z,29.29
2022-07-26T14:49:44.029Z,29.41
2022-07-26T14:52:38.978Z,29.80
2022-07-26T14:55:07.925Z,29.54
2022-07-26T14:57:39.427Z,29.94
2022-07-26T15:00:17.239Z,30.37
2022-07-26T15:02:48.843Z,30.10
2022-07-26T15:05:20.362Z,30.19
2022-07-26T15:07:55.158Z,30.75
2022-07-26T15:10:30.381Z,30.71
2022-07-26T15:13:04.751Z,30.22
2022-07-26T15:15:37.349Z,31.17
2022-07-26T15:18:05.386Z,31.39
2022-07-26T15:20:33.493Z,31.86
2022-07-26T15:23:01.923Z,33.07
2022-07-26T15:25:29.892Z,33.21
2022-07-26T15:27:59.123Z,34.02
2022-07-26T15:30:28.455Z,33.61
2022-07-26T15:32:59.524Z,33.54
2022-07-26T15:35:27.762Z,33.83
2022-07-26T15:37:55.897Z,33.85
2022-07-26T15:40:23.843Z,34.02
2022-07-26T15:42:52.914Z,34.66
2022-07-26T15:45:22.621Z,34.38
2022-07-26T15:47:56.265Z,34.34
2022-07-26T15:50:31.265Z,33.52
2022-07-26T15:53:00.784Z,33.50
2022-07-26T15:55:28.914Z,33.41
2022-07-26T15:57:56.915Z,33.10
2022-07-26T16:00:25.021Z,32.68
2022-07-26T16:02:53.038Z,32.54
2022-07-26T16:05:21.036Z,32.86
2022-07-26T16:07:49.054Z,32.77
2022-07-26T16:10:17.186Z,32.04
2022-07-26T16:12:46.336Z,32.00
2022-07-26T16:15:15.782Z,32.13
2022-07-26T16:17:43.859Z,32.41
2022-07-26T16:20:11.995Z,31.94
2022-07-26T16:22:41.962Z,31.83
2022-07-26T16:25:14.034Z,32.04
2022-07-26T16:27:43.687Z,31.81
2022-07-26T16:30:14.056Z,31.85
2022-07-26T16:32:48.447Z,32.14
2022-07-26T16:35:18.650Z,32.57
2022-07-26T16:37:47.887Z,32.75
2022-07-26T16:40:20.782Z,33.15
2022-07-26T16:42:49.725Z,32.83
2022-07-26T16:45:21.983Z,32.79
2022-07-26T16:48:17.566Z,33.13
2022-07-26T16:50:45.868Z,33.29
2022-07-26T16:53:14.004Z,33.35
2022-07-26T16:55:43.470Z,32.96
2022-07-26T16:58:12.070Z,33.12
2022-07-26T17:00:40.555Z,33.06
2022-07-26T17:03:08.539Z,33.35
2022-07-26T17:05:36.585Z,33.03
2022-07-26T17:08:05.259Z,32.98
2022-07-26T17:10:33.359Z,32.34
2022-07-26T17:13:01.599Z,32.18
2022-07-26T17:15:29.684Z,32.45
2022-07-26T17:17:57.859Z,32.40
2022-07-26T17:20:28.191Z,31.89
2022-07-26T17:22:56.172Z,31.06
2022-07-26T17:25:24.759Z,30.30
2022-07-26T17:27:53.424Z,30.21
2022-07-26T17:30:21.787Z,29.36
2022-07-26T17:32:50.441Z,29.59
2022-07-26T17:35:47.410Z,29.81
2022-07-26T17:38:17.855Z,30.38
2022-07-26T17:40:46.099Z,30.64
2022-07-26T17:43:15.233Z,30.99
2022-07-26T17:45:43.308Z,31.30
2022-07-26T17:48:11.632Z,31.72
2022-07-26T17:50:39.751Z,32.30
2022-07-26T17:53:07.924Z,32.00
2022-07-26T17:55:36.104Z,32.31
2022-07-26T17:58:04.254Z,32.30
2022-07-26T18:00:32.251Z,32.04
2022-07-26T18:03:00.419Z,31.43
2022-07-26T18:05:34.925Z,32.06
2022-07-26T18:08:04.480Z,31.75
2022-07-26T18:10:32.905Z,32.01
2022-07-26T18:13:00.954Z,31.85
2022-07-26T18:15:30.685Z,32.12
2022-07-26T18:17:59.417Z,31.83
2022-07-26T18:20:28.625Z,32.00
2022-07-26T18:22:56.687Z,32.69
2022-07-26T18:25:24.947Z,32.43
2022-07-26T18:27:53.960Z,32.32
2022-07-26T18:30:22.067Z,32.50
2022-07-26T18:32:50.027Z,32.59
2022-07-26T18:35:19.920Z,33.16
2022-07-26T18:37:48.185Z,33.20
2022-07-26T18:40:17.367Z,33.40
2022-07-26T18:42:45.889Z,33.70
2022-07-26T18:45:14.213Z,33.79
2022-07-26T18:47:42.682Z,33.86
2022-07-26T18:50:12.260Z,33.98
2022-07-26T18:52:45.923Z,33.83
2022-07-26T18:55:14.903Z,34.22
2022-07-26T18:57:44.459Z,34.30
2022-07-26T19:00:17.205Z,34.73
2022-07-26T19:02:46.779Z,34.67
2022-07-26T19:05:16.871Z,34.81
2022-07-26T19:07:45.989Z,34.91
2022-07-26T19:10:14.458Z,35.22
2022-07-26T19:12:45.381Z,34.88
2022-07-26T19:15:16.804Z,34.90
2022-07-26T19:17:45.308Z,35.10
2022-07-26T19:20:14.115Z,35.29
2022-07-26T19:22:44.341Z,35.53
2022-07-26T19:25:15.004Z,35.54
2022-07-26T19:27:44.144Z,35.97
2022-07-26T19:30:12.793Z,35.88
2022-07-26T19:32:40.994Z,36.11
2022-07-26T19:35:09.975Z,36.36
2022-07-26T19:37:37.832Z,36.30
2022-07-26T19:40:06.661Z,36.40
2022-07-26T19:42:34.802Z,36.58
2022-07-26T19:45:03.009Z,36.85
2022-07-26T19:47:31.319Z,36.93
2022-07-26T19:49:59.277Z,36.90
2022-07-26T19:52:27.663Z,36.93
2022-07-26T19:54:57.064Z,36.72
2022-07-26T19:57:27.738Z,36.74
2022-07-26T19:59:56.497Z,36.83
2022-07-26T20:02:25.067Z,36.37
2022-07-26T20:04:55.720Z,36.53
2022-07-26T20:07:25.276Z,36.29
2022-07-26T20:09:54.566Z,36.32
2022-07-26T20:12:23.594Z,36.02
2022-07-26T20:14:54.374Z,35.94
2022-07-26T20:17:23.517Z,36.24
2022-07-26T20:19:53.528Z,35.85
2022-07-26T20:22:24.030Z,36.51
2022-07-26T20:24:58.949Z,35.96
2022-07-26T20:27:28.793Z,36.30
2022-07-26T20:30:00.886Z,36.13
2022-07-26T20:32:30.524Z,36.18
2022-07-26T20:34:58.929Z,37.00
2022-07-26T20:37:27.211Z,37.29
2022-07-26T20:39:58.825Z,37.63
2022-07-26T20:42:29.781Z,38.00
2022-07-26T20:45:01.362Z,38.31
2022-07-26T20:47:30.134Z,37.81
2022-07-26T20:50:02.987Z,38.33
2022-07-26T20:52:31.570Z,38.60
2022-07-26T20:55:00.520Z,38.60
2022-07-26T20:57:28.495Z,38.76
2022-07-26T20:59:56.511Z,39.11
2022-07-26T21:02:25.004Z,39.36
2022-07-26T21:04:53.457Z,39.41
2022-07-26T21:07:21.692Z,39.93
2022-07-26T21:09:50.036Z,39.84
2022-07-26T21:12:19.817Z,40.09
2022-07-26T21:14:51.192Z,40.72
2022-07-26T21:17:19.908Z,41.04
2022-07-26T21:19:48.101Z,40.71
2022-07-26T21:22:16.118Z,40.63
2022-07-26T21:24:44.607Z,41.21
2022-07-26T21:27:14.759Z,41.26
2022-07-26T21:29:42.893Z,41.58
2022-07-26T21:32:11.333Z,41.31
2022-07-26T21:34:39.275Z,41.73
2022-07-26T21:37:07.260Z,41.77
2022-07-26T21:39:36.529Z,41.83
2022-07-26T21:42:04.689Z,41.88
2022-07-26T21:44:33.035Z,41.65
2022-07-26T21:47:01.394Z,41.97
2022-07-26T21:49:32.703Z,42.51
2022-07-26T21:52:00.828Z,41.66
2022-07-26T21:54:31.078Z,41.90
2022-07-26T21:57:07.577Z,41.95
2022-07-26T21:59:36.418Z,41.48
2022-07-26T22:02:09.851Z,41.57
2022-07-26T22:04:40.022Z,42.00
2022-07-26T22:07:13.440Z,42.00
2022-07-26T22:09:42.187Z,41.86
2022-07-26T22:12:12.758Z,42.46
2022-07-26T22:14:41.533Z,42.07
2022-07-26T22:17:10.675Z,41.64
2022-07-26T22:19:39.198Z,41.89
2022-07-26T22:22:07.293Z,41.71
2022-07-26T22:24:35.443Z,41.55
2022-07-26T22:27:03.474Z,41.50
2022-07-26T22:29:39.968Z,41.42
2022-07-26T22:32:08.355Z,41.17
2022-07-26T22:34:36.225Z,41.66
2022-07-26T22:37:04.239Z,41.68
2022-07-26T22:39:32.139Z,40.97
2022-07-26T22:42:16.598Z,40.50
2022-07-26T22:44:44.562Z,40.54
2022-07-26T22:47:12.523Z,40.48
2022-07-26T22:49:44.296Z,40.92
2022-07-26T22:52:14.761Z,40.48
2022-07-26T22:54:44.613Z,41.01
2022-07-26T22:57:13.011Z,40.22
2022-07-26T22:59:41.149Z,40.16
2022-07-26T23:02:09.262Z,39.73
2022-07-26T23:04:37.468Z,39.97
2022-07-26T23:07:05.416Z,40.29
2022-07-26T23:09:33.418Z,39.94
2022-07-26T23:12:05.191Z,39.55
2022-07-26T23:14:35.391Z,39.28
2022-07-26T23:17:04.302Z,39.59
2022-07-26T23:19:32.671Z,39.92
2022-07-26T23:22:00.805Z,39.78
2022-07-26T23:24:28.716Z,39.34
2022-07-26T23:26:56.812Z,39.76
2022-07-26T23:29:24.848Z,38.96
2022-07-26T23:31:52.923Z,39.49
2022-07-26T23:34:20.801Z,39.34
2022-07-26T23:36:48.622Z,39.28
2022-07-26T23:39:16.573Z,39.38
2022-07-26T23:41:44.471Z,39.33
2022-07-26T23:44:12.274Z,39.46
2022-07-26T23:46:40.097Z,39.11
2022-07-26T23:49:08.368Z,39.25
2022-07-26T23:51:36.410Z,39.48
2022-07-26T23:54:04.303Z,39.91
2022-07-26T23:56:33.488Z,39.93
2022-07-26T23:59:01.398Z,41.80
